createdAt,value
2018-12-22T00:01:21.416Z,5.47
2018-12-22T00:03:54.953Z,5.40
2018-12-22T00:06:25.490Z,3.57
2018-12-22T00:08:56.113Z,7.03
2018-12-22T00:11:26.813Z,5.07
2018-12-22T00:13:57.323Z,3.83
2018-12-22T00:16:27.878Z,5.37
2018-12-22T00:18:58.401Z,3.00
2018-12-22T00:21:28.910Z,3.83
2018-12-22T00:24:00.305Z,6.83
2018-12-22T00:26:30.819Z,6.77
2018-12-22T00:29:01.435Z,4.73
2018-12-22T00:31:31.922Z,6.23
2018-12-22T00:34:02.427Z,6.30
2018-12-22T00:36:32.929Z,5.27
2018-12-22T00:39:06.268Z,4.23
2018-12-22T00:41:36.867Z,5.73
2018-12-22T00:44:07.497Z,5.50
2018-12-22T00:46:38.117Z,3.53
2018-12-22T00:49:08.687Z,6.73
2018-12-22T00:51:39.402Z,4.57
2018-12-22T00:54:09.916Z,6.10
2018-12-22T00:56:40.411Z,3.33
2018-12-22T00:59:11.953Z,5.53
2018-12-22T01:01:42.535Z,4.57
2018-12-22T01:04:13.050Z,4.93
2018-12-22T01:06:43.559Z,5.57
2018-12-22T01:09:14.037Z,4.57
2018-12-22T01:11:44.533Z,5.03
2018-12-22T01:14:15.001Z,7.43
2018-12-22T01:16:45.504Z,6.30
2018-12-22T01:19:16.031Z,5.83
2018-12-22T01:21:46.539Z,7.00
2018-12-22T01:24:17.029Z,10.47
2018-12-22T01:26:47.554Z,8.17
2018-12-22T01:29:18.106Z,6.30
2018-12-22T01:31:48.666Z,9.00
2018-12-22T01:34:19.131Z,5.27
2018-12-22T01:36:49.592Z,5.03
2018-12-22T01:39:20.061Z,7.20
2018-12-22T01:41:50.582Z,8.10
2018-12-22T01:44:21.106Z,8.53
2018-12-22T01:46:51.633Z,5.97
2018-12-22T01:49:22.090Z,6.70
2018-12-22T01:51:52.618Z,7.07
2018-12-22T01:54:23.339Z,6.60
2018-12-22T01:56:53.869Z,8.87
2018-12-22T01:59:24.392Z,5.50
2018-12-22T02:01:55.438Z,7.83
2018-12-22T02:04:25.914Z,7.27
2018-12-22T02:06:56.538Z,4.27
2018-12-22T02:09:27.087Z,11.87
2018-12-22T02:11:58.545Z,12.37
2018-12-22T02:14:29.098Z,7.07
2018-12-22T02:16:59.759Z,8.73
2018-12-22T02:19:31.406Z,5.90
2018-12-22T02:22:02.343Z,5.50
2018-12-22T02:24:34.035Z,5.53
2018-12-22T02:27:04.507Z,5.00
2018-12-22T02:29:35.463Z,7.80
2018-12-22T02:32:05.994Z,9.23
2018-12-22T02:34:37.404Z,9.50
2018-12-22T02:37:08.436Z,7.47
2018-12-22T02:39:38.874Z,7.97
2018-12-22T02:42:10.497Z,10.70
2018-12-22T02:44:40.979Z,8.47
2018-12-22T02:47:11.465Z,9.70
2018-12-22T02:49:42.024Z,8.17
2018-12-22T02:52:12.495Z,7.47
2018-12-22T02:54:42.974Z,7.47
2018-12-22T02:57:13.468Z,8.17
2018-12-22T02:59:43.988Z,5.33
2018-12-22T03:02:14.464Z,5.00
2018-12-22T03:04:45.036Z,4.80
2018-12-22T03:07:16.734Z,4.83
2018-12-22T03:09:47.297Z,8.50
2018-12-22T03:12:17.812Z,6.07
2018-12-22T03:14:48.348Z,5.03
2018-12-22T03:17:18.842Z,2.93
2018-12-22T03:19:49.370Z,3.00
2018-12-22T03:22:19.840Z,5.53
2018-12-22T03:24:50.290Z,5.10
2018-12-22T03:27:20.845Z,4.77
2018-12-22T03:29:58.039Z,4.23
2018-12-22T03:32:28.528Z,9.17
2018-12-22T03:34:59.025Z,5.43
2018-12-22T03:37:29.510Z,5.13
2018-12-22T03:40:01.157Z,8.03
2018-12-22T03:42:31.613Z,5.93
2018-12-22T03:45:02.090Z,5.77
2018-12-22T03:47:32.560Z,5.57
2018-12-22T03:50:03.036Z,2.70
2018-12-22T03:52:33.547Z,2.80
2018-12-22T03:55:04.171Z,3.50
2018-12-22T03:57:34.682Z,3.97
2018-12-22T04:00:05.445Z,2.90
2018-12-22T04:02:35.971Z,2.63
2018-12-22T04:05:07.651Z,3.40
2018-12-22T04:07:38.317Z,5.17
2018-12-22T04:10:09.142Z,3.50
2018-12-22T04:12:39.674Z,1.90
2018-12-22T04:15:10.165Z,2.40
2018-12-22T04:17:40.655Z,2.47
2018-12-22T04:20:11.103Z,1.70
2018-12-22T04:22:41.617Z,1.90
2018-12-22T04:25:12.139Z,2.83
2018-12-22T04:27:42.619Z,2.93
2018-12-22T04:30:13.088Z,5.57
2018-12-22T04:32:43.547Z,2.07
2018-12-22T04:35:14.014Z,2.60
2018-12-22T04:37:44.499Z,1.53
2018-12-22T04:40:14.960Z,2.53
2018-12-22T04:42:45.421Z,3.07
2018-12-22T04:45:15.877Z,2.37
2018-12-22T04:47:46.370Z,4.43
2018-12-22T04:50:17.849Z,1.77
2018-12-22T04:52:48.370Z,2.70
2018-12-22T04:55:18.866Z,2.80
2018-12-22T04:57:49.305Z,1.40
2018-12-22T05:00:19.793Z,1.93
2018-12-22T05:02:50.333Z,2.67
2018-12-22T05:05:20.824Z,1.90
2018-12-22T05:07:51.314Z,1.23
2018-12-22T05:10:21.777Z,1.67
2018-12-22T05:12:52.237Z,2.90
2018-12-22T05:15:22.745Z,1.90
2018-12-22T05:17:53.207Z,1.43
2018-12-22T05:20:23.711Z,1.67
2018-12-22T05:22:54.194Z,2.50
2018-12-22T05:25:24.694Z,1.23
2018-12-22T05:27:55.170Z,1.87
2018-12-22T05:30:25.627Z,1.80
2018-12-22T05:32:56.102Z,1.13
2018-12-22T05:35:26.700Z,1.23
2018-12-22T05:37:57.213Z,1.17
2018-12-22T05:40:27.658Z,0.90
2018-12-22T05:42:58.210Z,0.77
2018-12-22T05:45:28.682Z,1.73
2018-12-22T05:47:59.133Z,1.90
2018-12-22T05:50:29.639Z,1.17
2018-12-22T05:53:00.126Z,0.57
2018-12-22T05:55:30.671Z,0.63
2018-12-22T05:58:01.150Z,1.90
2018-12-22T06:00:31.813Z,0.50
2018-12-22T06:03:02.294Z,1.07
2018-12-22T06:05:32.790Z,2.27
2018-12-22T06:08:03.276Z,0.97
2018-12-22T06:10:33.804Z,0.73
2018-12-22T06:13:04.387Z,0.93
2018-12-22T06:15:34.912Z,0.33
2018-12-22T06:18:05.420Z,0.50
2018-12-22T06:20:36.047Z,0.60
2018-12-22T06:23:06.651Z,0.50
2018-12-22T06:25:37.151Z,1.60
2018-12-22T06:28:07.631Z,1.63
2018-12-22T06:30:38.358Z,1.43
2018-12-22T06:33:08.966Z,0.70
2018-12-22T06:35:39.479Z,0.93
2018-12-22T06:38:11.127Z,0.77
2018-12-22T06:40:41.605Z,4.23
2018-12-22T06:43:12.067Z,0.83
2018-12-22T06:45:42.946Z,2.20
2018-12-22T06:48:13.518Z,0.50
2018-12-22T06:50:44.124Z,0.50
2018-12-22T06:53:14.594Z,0.30
2018-12-22T06:55:45.082Z,1.23
2018-12-22T06:58:15.520Z,0.43
2018-12-22T07:00:46.039Z,0.40
2018-12-22T07:03:16.539Z,1.40
2018-12-22T07:05:47.266Z,4.53
2018-12-22T07:08:17.837Z,0.60
2018-12-22T07:10:48.407Z,0.93
2018-12-22T07:13:18.937Z,2.33
2018-12-22T07:15:49.501Z,0.30
2018-12-22T07:18:20.026Z,1.60
2018-12-22T07:20:50.515Z,2.53
2018-12-22T07:23:21.377Z,1.10
2018-12-22T07:42:18.954Z,1.43
2018-12-22T07:44:49.489Z,0.53
2018-12-22T07:47:20.008Z,0.60
2018-12-22T07:49:50.477Z,2.10
2018-12-22T07:52:20.920Z,0.53
2018-12-22T07:54:51.414Z,0.90
2018-12-22T07:57:23.015Z,0.60
2018-12-22T07:59:53.561Z,0.70
2018-12-22T08:02:24.047Z,1.27
2018-12-22T08:04:55.532Z,1.03
2018-12-22T08:07:26.080Z,1.00
2018-12-22T08:09:56.629Z,0.70
2018-12-22T08:12:27.234Z,0.57
2018-12-22T08:31:16.258Z,3.60
2018-12-22T08:33:47.128Z,0.37
2018-12-22T08:36:17.627Z,5.30
2018-12-22T08:38:48.865Z,0.80
2018-12-22T08:41:19.429Z,1.07
2018-12-22T08:43:50.139Z,1.00
2018-12-22T08:46:20.813Z,0.73
2018-12-22T08:48:51.348Z,1.07
2018-12-22T08:51:21.825Z,1.50
2018-12-22T08:53:54.435Z,1.37
2018-12-22T08:56:25.797Z,3.70
2018-12-22T08:58:56.303Z,0.90
2018-12-22T09:01:26.833Z,0.40
2018-12-22T09:03:57.294Z,0.87
2018-12-22T09:06:27.801Z,0.90
2018-12-22T09:09:03.016Z,0.70
2018-12-22T09:11:33.712Z,2.77
2018-12-22T09:14:04.386Z,3.40
2018-12-22T09:16:36.032Z,4.57
2018-12-22T09:19:07.843Z,4.30
2018-12-22T09:21:39.270Z,6.00
2018-12-22T09:24:10.229Z,5.20
2018-12-22T09:26:41.666Z,5.37
2018-12-22T09:29:12.419Z,4.40
2018-12-22T09:34:35.301Z,7.70
2018-12-22T09:37:07.753Z,11.53
2018-12-22T09:39:39.250Z,5.97
2018-12-22T09:42:10.683Z,1.60
2018-12-22T09:44:43.883Z,1.40
2018-12-22T09:47:16.589Z,0.80
2018-12-22T09:49:48.733Z,1.23
2018-12-22T09:52:21.114Z,1.13
2018-12-22T09:54:51.837Z,1.50
2018-12-22T09:57:22.376Z,1.60
2018-12-22T09:59:52.897Z,4.50
2018-12-22T10:02:23.391Z,2.50
2018-12-22T10:04:54.098Z,4.30
2018-12-22T10:07:24.561Z,3.17
2018-12-22T10:09:55.206Z,2.77
2018-12-22T10:12:25.750Z,3.70
2018-12-22T10:14:56.438Z,0.67
2018-12-22T10:17:27.149Z,0.83
2018-12-22T10:19:57.601Z,6.93
2018-12-22T10:22:28.110Z,2.10
2018-12-22T10:24:58.606Z,2.53
2018-12-22T10:27:29.341Z,1.77
2018-12-22T10:29:59.962Z,5.07
2018-12-22T10:32:30.590Z,3.67
2018-12-22T10:35:01.384Z,3.73
2018-12-22T10:37:31.889Z,4.37
2018-12-22T10:40:02.944Z,3.83
2018-12-22T10:42:34.667Z,6.43
2018-12-22T10:45:05.767Z,3.83
2018-12-22T10:47:36.281Z,5.67
2018-12-22T10:50:06.796Z,3.47
2018-12-22T10:52:37.319Z,1.77
2018-12-22T10:55:09.710Z,2.20
2018-12-22T10:57:40.698Z,3.13
2018-12-22T11:00:15.487Z,1.63
2018-12-22T11:02:46.005Z,3.47
2018-12-22T11:05:17.904Z,8.13
2018-12-22T11:07:49.492Z,4.27
2018-12-22T11:10:24.296Z,4.27
2018-12-22T11:12:58.658Z,3.07
2018-12-22T11:15:29.271Z,1.87
2018-12-22T11:18:00.172Z,2.13
2018-12-22T11:20:30.806Z,1.47
2018-12-22T11:23:01.423Z,1.87
2018-12-22T11:25:32.097Z,5.03
2018-12-22T11:28:02.764Z,2.03
2018-12-22T11:30:40.474Z,2.43
2018-12-22T11:33:11.103Z,2.67
2018-12-22T11:35:41.844Z,2.87
2018-12-22T11:38:12.399Z,1.77
2018-12-22T11:40:43.118Z,1.83
2018-12-22T11:43:13.863Z,1.47
2018-12-22T11:45:44.502Z,2.93
2018-12-22T11:49:28.510Z,1.63
2018-12-22T11:51:59.100Z,4.20
2018-12-22T11:54:29.659Z,4.17
2018-12-22T11:57:00.329Z,1.97
2018-12-22T11:59:31.876Z,1.77
2018-12-22T12:02:09.488Z,3.50
2018-12-22T12:04:35.674Z,1.63
2018-12-22T12:07:06.239Z,2.27
2018-12-22T12:09:36.914Z,2.60
2018-12-22T12:12:07.519Z,6.07
2018-12-22T12:14:38.410Z,3.40
2018-12-22T12:17:31.702Z,3.43
2018-12-22T12:20:02.256Z,2.90
2018-12-22T12:22:33.451Z,1.60
2018-12-22T12:25:04.269Z,2.10
2018-12-22T12:27:34.875Z,1.87
2018-12-22T12:30:07.975Z,2.10
2018-12-22T12:32:38.497Z,0.93
2018-12-22T12:35:09.342Z,1.67
2018-12-22T12:37:46.182Z,1.77
2018-12-22T12:40:18.554Z,2.77
2018-12-22T12:42:49.099Z,2.97
2018-12-22T12:45:19.687Z,4.77
2018-12-22T12:47:50.196Z,2.10
2018-12-22T12:50:23.206Z,3.37
2018-12-22T12:52:53.730Z,2.20
2018-12-22T12:55:30.953Z,2.00
2018-12-22T12:58:03.174Z,3.33
2018-12-22T13:00:34.975Z,3.77
2018-12-22T13:03:09.867Z,2.93
2018-12-22T13:05:40.649Z,3.60
2018-12-22T13:08:14.240Z,3.73
2018-12-22T13:10:44.826Z,4.20
2018-12-22T13:13:40.679Z,3.30
2018-12-22T13:16:11.232Z,2.70
2018-12-22T13:18:41.896Z,3.03
2018-12-22T13:21:12.446Z,3.43
2018-12-22T13:23:43.070Z,2.60
2018-12-22T13:26:13.547Z,4.50
2018-12-22T13:28:44.170Z,3.17
2018-12-22T13:31:17.002Z,3.60
2018-12-22T13:33:47.526Z,3.53
2018-12-22T13:36:20.232Z,4.27
2018-12-22T13:39:05.062Z,5.20
2018-12-22T13:41:36.913Z,3.63
2018-12-22T13:44:07.598Z,3.77
2018-12-22T13:46:38.212Z,4.33
2018-12-22T13:49:09.309Z,5.67
2018-12-22T13:51:43.142Z,5.33
2018-12-22T13:54:16.464Z,5.80
2018-12-22T13:56:46.981Z,4.33
2018-12-22T13:59:17.521Z,4.87
2018-12-22T14:01:54.573Z,5.87
2018-12-22T14:07:10.894Z,6.20
2018-12-22T14:09:41.537Z,7.13
2018-12-22T14:12:12.142Z,5.60
2018-12-22T14:14:44.463Z,4.83
2018-12-22T14:17:30.646Z,7.97
2018-12-22T14:20:07.474Z,10.10
2018-12-22T14:22:38.079Z,6.97
2018-12-22T14:25:23.641Z,6.73
2018-12-22T14:27:54.159Z,11.13
2018-12-22T14:30:32.271Z,4.80
2018-12-22T14:33:19.259Z,8.23
2018-12-22T14:35:56.430Z,6.53
2018-12-22T14:38:26.980Z,6.30
2018-12-22T14:40:57.499Z,6.93
2018-12-22T14:43:27.950Z,7.50
2018-12-22T14:45:58.447Z,11.57
2018-12-22T14:48:28.906Z,7.17
2018-12-22T14:50:59.382Z,5.93
2018-12-22T14:53:29.961Z,6.40
2018-12-22T14:56:00.632Z,6.40
2018-12-22T14:58:37.142Z,8.03
2018-12-22T15:01:07.816Z,7.63
2018-12-22T15:03:38.439Z,6.33
2018-12-22T15:06:09.042Z,6.80
2018-12-22T15:08:39.531Z,8.03
2018-12-22T15:11:10.123Z,9.30
2018-12-22T15:13:40.742Z,8.07
2018-12-22T15:16:11.345Z,7.10
2018-12-22T15:18:41.935Z,9.30
2018-12-22T15:21:12.517Z,5.87
2018-12-22T15:23:43.797Z,6.70
2018-12-22T15:26:14.332Z,9.33
2018-12-22T15:28:47.306Z,8.40
2018-12-22T15:31:17.460Z,8.60
2018-12-22T15:33:47.983Z,7.03
2018-12-22T15:36:18.521Z,7.17
2018-12-22T15:38:49.220Z,8.83
2018-12-22T15:41:19.772Z,8.73
2018-12-22T15:43:50.238Z,9.83
2018-12-22T15:46:20.985Z,8.03
2018-12-22T15:48:54.906Z,17.53
2018-12-22T15:51:25.381Z,17.27
2018-12-22T15:53:55.930Z,8.47
2018-12-22T15:56:26.988Z,13.30
2018-12-22T15:58:57.470Z,10.03
2018-12-22T16:01:27.986Z,11.27
2018-12-22T16:03:58.491Z,9.40
2018-12-22T16:06:29.092Z,9.37
2018-12-22T16:08:59.570Z,12.20
2018-12-22T16:11:30.084Z,9.77
2018-12-22T16:14:00.729Z,9.67
2018-12-22T16:16:32.934Z,9.07
2018-12-22T16:19:04.146Z,10.60
2018-12-22T16:21:35.499Z,8.30
2018-12-22T16:24:07.152Z,10.07
2018-12-22T16:26:39.069Z,11.00
2018-12-22T16:29:19.177Z,15.37
2018-12-22T16:31:49.653Z,15.73
2018-12-22T16:34:23.262Z,13.77
2018-12-22T16:36:55.383Z,11.63
2018-12-22T16:39:25.955Z,9.67
2018-12-22T16:41:56.481Z,11.40
2018-12-22T16:44:26.943Z,11.43
2018-12-22T16:46:57.402Z,10.23
2018-12-22T16:49:28.009Z,12.60
2018-12-22T16:51:58.509Z,12.23
2018-12-22T16:54:29.011Z,11.03
2018-12-22T16:56:59.537Z,10.57
2018-12-22T16:59:32.246Z,11.10
2018-12-22T17:02:16.088Z,10.10
2018-12-22T17:04:46.618Z,11.07
2018-12-22T17:07:17.132Z,11.20
2018-12-22T17:09:47.665Z,11.60
2018-12-22T17:12:18.299Z,11.30
2018-12-22T17:14:48.802Z,11.57
2018-12-22T17:17:19.309Z,9.73
2018-12-22T17:19:49.874Z,11.80
2018-12-22T17:23:34.362Z,11.70
2018-12-22T17:26:08.589Z,10.87
2018-12-22T17:28:39.137Z,12.50
2018-12-22T17:31:11.401Z,10.83
2018-12-22T17:33:42.336Z,13.73
2018-12-22T17:36:12.813Z,12.03
2018-12-22T17:38:43.389Z,13.83
2018-12-22T17:41:14.011Z,14.07
2018-12-22T17:43:46.954Z,14.23
2018-12-22T17:46:17.777Z,14.43
2018-12-22T17:48:48.325Z,12.57
2018-12-22T17:51:18.790Z,11.37
2018-12-22T17:53:49.377Z,13.33
2018-12-22T17:56:19.867Z,12.77
2018-12-22T17:58:50.454Z,16.57
2018-12-22T18:01:20.956Z,12.40
2018-12-22T18:03:51.453Z,12.10
2018-12-22T18:06:21.966Z,12.80
2018-12-22T18:08:52.544Z,14.63
2018-12-22T18:11:23.096Z,13.07
2018-12-22T18:13:53.659Z,14.63
2018-12-22T18:16:24.186Z,13.13
2018-12-22T18:18:54.780Z,15.27
2018-12-22T18:21:25.483Z,18.17
2018-12-22T18:23:56.043Z,19.03
2018-12-22T18:26:26.590Z,11.83
2018-12-22T18:28:57.109Z,11.47
2018-12-22T18:31:27.617Z,16.53
2018-12-22T18:33:58.106Z,12.03
2018-12-22T18:36:28.660Z,13.40
2018-12-22T18:38:59.188Z,12.70
2018-12-22T18:41:29.682Z,12.07
2018-12-22T18:44:00.189Z,14.10
2018-12-22T18:46:30.665Z,13.00
2018-12-22T18:49:01.205Z,13.73
2018-12-22T18:51:31.749Z,17.67
2018-12-22T18:54:02.294Z,14.83
2018-12-22T18:56:32.782Z,15.83
2018-12-22T18:59:03.346Z,14.77
2018-12-22T19:01:33.806Z,15.00
2018-12-22T19:04:04.342Z,15.20
2018-12-22T19:06:34.864Z,17.93
2018-12-22T19:09:09.801Z,18.50
2018-12-22T19:11:40.436Z,15.37
2018-12-22T19:14:10.950Z,15.07
2018-12-22T19:16:41.498Z,18.57
2018-12-22T19:19:12.011Z,15.13
2018-12-22T19:21:42.491Z,17.10
2018-12-22T19:24:12.942Z,16.60
2018-12-22T19:26:43.488Z,14.63
2018-12-22T19:29:13.969Z,12.80
2018-12-22T19:31:44.453Z,16.03
2018-12-22T19:34:15.083Z,14.10
2018-12-22T19:36:45.595Z,15.67
2018-12-22T19:39:16.109Z,13.33
2018-12-22T19:41:46.579Z,14.50
2018-12-22T19:44:17.053Z,18.30
2018-12-22T19:46:54.255Z,14.60
2018-12-22T19:49:25.481Z,17.40
2018-12-22T19:51:55.926Z,14.70
2018-12-22T19:54:26.489Z,15.67
2018-12-22T19:56:57.004Z,14.80
2018-12-22T19:59:27.485Z,15.80
2018-12-22T20:01:58.015Z,19.80
2018-12-22T20:04:28.505Z,16.93
2018-12-22T20:06:58.939Z,18.90
2018-12-22T20:09:29.418Z,19.27
2018-12-22T20:11:59.894Z,18.70
2018-12-22T20:14:30.385Z,16.43
2018-12-22T20:17:00.860Z,19.83
2018-12-22T20:19:35.486Z,19.73
2018-12-22T20:22:05.962Z,17.67
2018-12-22T20:24:36.492Z,17.13
2018-12-22T20:27:06.973Z,19.37
2018-12-22T20:29:37.479Z,19.30
2018-12-22T20:32:08.612Z,19.07
2018-12-22T20:34:41.570Z,23.63
2018-12-22T20:37:13.086Z,20.30
2018-12-22T20:39:43.855Z,21.33
2018-12-22T20:42:15.943Z,20.77
2018-12-22T20:44:46.471Z,20.47
2018-12-22T20:47:16.949Z,22.20
2018-12-22T20:49:47.408Z,22.63
2018-12-22T20:52:17.913Z,21.47
2018-12-22T20:54:48.495Z,22.83
2018-12-22T20:57:19.998Z,20.33
2018-12-22T20:59:51.586Z,19.30
2018-12-22T21:02:22.325Z,24.67
2018-12-22T21:04:53.198Z,21.07
2018-12-22T21:07:24.526Z,20.27
2018-12-22T21:09:56.061Z,23.33
2018-12-22T21:12:26.831Z,23.47
2018-12-22T21:14:57.296Z,31.73
2018-12-22T21:17:27.942Z,22.83
2018-12-22T21:19:58.634Z,19.90
2018-12-22T21:22:29.375Z,20.33
2018-12-22T21:25:00.904Z,19.07
2018-12-22T21:27:31.567Z,20.53
2018-12-22T21:30:02.052Z,18.37
2018-12-22T21:32:32.597Z,22.03
2018-12-22T21:35:03.066Z,20.97
2018-12-22T21:37:33.614Z,18.70
2018-12-22T21:40:05.255Z,23.53
2018-12-22T21:42:36.002Z,20.03
2018-12-22T21:45:06.839Z,22.90
2018-12-22T21:47:37.720Z,22.03
2018-12-22T21:50:08.266Z,23.37
2018-12-22T21:52:38.801Z,26.10
2018-12-22T21:55:10.310Z,26.73
2018-12-22T21:57:41.058Z,27.10
2018-12-22T22:00:11.708Z,25.87
2018-12-22T22:02:42.563Z,23.07
2018-12-22T22:05:13.561Z,23.20
2018-12-22T22:07:51.048Z,28.37
2018-12-22T22:10:21.915Z,24.93
2018-12-22T22:12:52.623Z,22.10
2018-12-22T22:15:26.104Z,20.13
2018-12-22T22:17:56.773Z,18.87
2018-12-22T22:20:27.524Z,20.07
2018-12-22T22:22:58.179Z,21.30
2018-12-22T22:25:38.490Z,23.70
2018-12-22T22:28:11.106Z,27.30
2018-12-22T22:30:54.204Z,23.47
2018-12-22T22:33:25.832Z,20.60
2018-12-22T22:35:56.529Z,22.53
2018-12-22T22:38:29.136Z,25.70
2018-12-22T22:40:59.859Z,21.53
2018-12-22T22:43:30.342Z,25.23
2018-12-22T22:46:00.842Z,19.83
2018-12-22T22:48:31.382Z,21.53
2018-12-22T22:51:01.887Z,22.73
2018-12-22T22:53:32.341Z,22.87
2018-12-22T22:56:02.829Z,19.10
2018-12-22T22:58:33.324Z,22.30
2018-12-22T23:01:03.852Z,18.30
2018-12-22T23:03:34.448Z,18.70
2018-12-22T23:06:05.051Z,16.20
2018-12-22T23:08:35.674Z,15.23
2018-12-22T23:11:06.229Z,18.23
2018-12-22T23:13:36.798Z,15.83
2018-12-22T23:16:08.968Z,17.17
2018-12-22T23:18:39.653Z,17.07
2018-12-22T23:21:10.147Z,16.40
2018-12-22T23:23:40.664Z,18.77
2018-12-22T23:26:11.167Z,18.60
2018-12-22T23:28:41.618Z,17.73
2018-12-22T23:31:12.124Z,22.53
2018-12-22T23:33:42.607Z,21.07
2018-12-22T23:36:13.108Z,24.77
2018-12-22T23:38:43.643Z,18.43
2018-12-22T23:41:14.252Z,16.37
2018-12-22T23:43:44.738Z,16.53
2018-12-22T23:46:15.233Z,20.07
2018-12-22T23:48:45.676Z,21.73
2018-12-22T23:51:16.214Z,20.07
2018-12-22T23:53:46.710Z,21.63
2018-12-22T23:56:17.265Z,22.63
2018-12-22T23:58:47.735Z,21.63
